Time,TemperatureF,DewpointF,PressureIn,WindDirection,WindDirectionDegrees,WindSpeedMPH,WindSpeedGustMPH,Humidity,HourlyPrecipIn,Conditions,Clouds,dailyrainin,SoftwareType,DateUTC
2013-05-03 00:02:00,52.6,11.4,30.14,WSW,244,1.0,1.0,19,0.00,,,0.00,Wunderground v.1.15,2013-05-03 07:02:00,
2013-05-03 00:08:00,51.8,10.8,30.13,SW,233,0.0,1.0,19,0.00,,,0.00,Wunderground v.1.15,2013-05-03 07:08:00,
2013-05-03 00:14:00,51.8,14.1,30.14,SE,128,0.0,0.0,22,0.00,,,0.00,Wunderground v.1.15,2013-05-03 07:14:00,
2013-05-03 00:20:00,50.6,17.8,30.13,SSE,155,0.0,0.0,27,0.00,,,0.00,Wunderground v.1.15,2013-05-03 07:20:00,
2013-05-03 00:25:00,48.9,17.2,30.13,South,169,0.0,0.0,28,0.00,,,0.00,Wunderground v.1.15,2013-05-03 07:25:00,
2013-05-03 00:31:00,50.1,11.6,30.13,SSW,198,0.0,0.0,21,0.00,,,0.00,Wunderground v.1.15,2013-05-03 07:31:00,
2013-05-03 00:37:00,51.1,9.0,30.13,SSW,194,0.0,0.0,18,0.00,,,0.00,Wunderground v.1.15,2013-05-03 07:37:00,
2013-05-03 00:42:00,51.6,6.8,30.13,SSW,207,0.0,0.0,16,0.00,,,0.00,Wunderground v.1.15,2013-05-03 07:42:00,
2013-05-03 00:48:00,51.2,5.0,30.13,SSW,211,0.0,0.0,15,0.00,,,0.00,Wunderground v.1.15,2013-05-03 07:48:00,
2013-05-03 00:54:00,51.6,3.9,30.12,SW,231,0.0,0.0,14,0.00,,,0.00,Wunderground v.1.15,2013-05-03 07:54:00,
2013-05-03 01:00:00,52.4,10.1,30.12,WSW,255,0.0,0.0,18,0.00,,,0.00,Wunderground v.1.15,2013-05-03 08:00:00,
2013-05-03 01:06:00,51.6,9.4,30.12,SW,235,0.0,0.0,18,0.00,,,0.00,Wunderground v.1.15,2013-05-03 08:06:00,
2013-05-03 01:12:00,50.8,7.5,30.12,SW,224,0.0,0.0,17,0.00,,,0.00,Wunderground v.1.15,2013-05-03 08:12:00,
2013-05-03 01:18:00,51.1,7.7,30.12,SSW,211,0.0,0.0,17,0.00,,,0.00,Wunderground v.1.15,2013-05-03 08:18:00,
2013-05-03 01:23:00,51.6,13.9,30.12,SSW,211,0.0,0.0,22,0.00,,,0.00,Wunderground v.1.15,2013-05-03 08:23:00,
2013-05-03 01:29:00,51.6,16.9,30.11,SW,231,0.0,0.0,25,0.00,,,0.00,Wunderground v.1.15,2013-05-03 08:29:00,
2013-05-03 01:35:00,51.1,17.4,30.11,SW,226,0.0,0.0,26,0.00,,,0.00,Wunderground v.1.15,2013-05-03 08:35:00,
2013-05-03 01:40:00,50.4,17.6,30.11,SW,231,0.0,0.0,27,0.00,,,0.00,Wunderground v.1.15,2013-05-03 08:40:00,
2013-05-03 01:46:00,50.0,17.3,30.11,SW,230,0.0,0.0,27,0.00,,,0.00,Wunderground v.1.15,2013-05-03 08:46:00,
2013-05-03 01:52:00,50.1,14.7,30.11,WSW,252,0.0,0.0,24,0.00,,,0.00,Wunderground v.1.15,2013-05-03 08:52:00,
2013-05-03 01:58:00,49.9,14.5,30.11,WSW,238,0.0,0.0,24,0.00,,,0.00,Wunderground v.1.15,2013-05-03 08:58:00,
2013-05-03 02:04:00,49.9,14.5,30.10,WSW,243,0.0,0.0,24,0.00,,,0.00,Wunderground v.1.15,2013-05-03 09:04:00,
2013-05-03 02:10:00,50.2,12.8,30.11,WSW,247,0.0,0.0,22,0.00,,,0.00,Wunderground v.1.15,2013-05-03 09:10:00,
2013-05-03 02:16:00,49.7,9.0,30.10,WSW,242,0.0,0.0,19,0.00,,,0.00,Wunderground v.1.15,2013-05-03 09:16:00,
2013-05-03 02:22:00,50.0,5.5,30.10,WSW,241,0.0,0.0,16,0.00,,,0.00,Wunderground v.1.15,2013-05-03 09:22:00,
2013-05-03 02:28:00,49.8,5.3,30.10,WSW,240,0.0,0.0,16,0.00,,,0.00,Wunderground v.1.15,2013-05-03 09:28:00,
2013-05-03 02:34:00,49.9,8.0,30.10,SW,221,0.0,0.0,18,0.00,,,0.00,Wunderground v.1.15,2013-05-03 09:34:00,
2013-05-03 02:40:00,51.2,7.8,30.10,WSW,244,0.0,0.0,17,0.00,,,0.00,Wunderground v.1.15,2013-05-03 09:40:00,
2013-05-03 02:46:00,51.4,6.6,30.09,West,259,0.0,0.0,16,0.00,,,0.00,Wunderground v.1.15,2013-05-03 09:46:00,
2013-05-03 02:52:00,49.6,5.2,30.09,WSW,238,0.0,0.0,16,0.00,,,0.00,Wunderground v.1.15,2013-05-03 09:52:00,
2013-05-03 02:58:00,49.3,7.5,30.09,SW,233,0.0,0.0,18,0.00,,,0.00,Wunderground v.1.15,2013-05-03 09:58:00,
2013-05-03 03:04:00,50.2,8.2,30.09,WSW,240,0.0,0.0,18,0.00,,,0.00,Wunderground v.1.15,2013-05-03 10:04:00,
2013-05-03 03:10:00,49.3,7.5,30.09,WSW,238,0.0,0.0,18,0.00,,,0.00,Wunderground v.1.15,2013-05-03 10:10:00,
2013-05-03 03:16:00,49.0,9.6,30.09,WSW,250,0.0,0.0,20,0.00,,,0.00,Wunderground v.1.15,2013-05-03 10:16:00,
2013-05-03 03:22:00,48.8,9.4,30.09,WSW,255,0.0,0.0,20,0.00,,,0.00,Wunderground v.1.15,2013-05-03 10:22:00,
2013-05-03 03:28:00,47.7,9.6,30.09,WSW,258,0.0,0.0,21,0.00,,,0.00,Wunderground v.1.15,2013-05-03 10:28:00,
2013-05-03 03:34:00,46.3,5.0,30.09,WSW,254,0.0,0.0,18,0.00,,,0.00,Wunderground v.1.15,2013-05-03 10:34:00,
2013-05-03 03:39:00,46.9,1.6,30.08,WSW,237,0.0,0.0,15,0.00,,,0.00,Wunderground v.1.15,2013-05-03 10:39:00,
2013-05-03 03:45:00,49.2,0.3,30.09,WSW,258,0.0,0.0,13,0.00,,,0.00,Wunderground v.1.15,2013-05-03 10:45:00,
2013-05-03 03:50:00,49.7,0.7,30.09,West,266,0.0,0.0,13,0.00,,,0.00,Wunderground v.1.15,2013-05-03 10:50:00,
2013-05-03 03:56:00,48.1,-2.2,30.09,WSW,251,0.0,0.0,12,0.00,,,0.00,Wunderground v.1.15,2013-05-03 10:56:00,
2013-05-03 04:02:00,46.4,-3.6,30.09,West,268,0.0,0.0,12,0.00,,,0.00,Wunderground v.1.15,2013-05-03 11:02:00,
2013-05-03 04:08:00,45.2,-2.8,30.08,WSW,256,0.0,0.0,13,0.00,,,0.00,Wunderground v.1.15,2013-05-03 11:08:00,
2013-05-03 04:14:00,44.5,-1.8,30.08,West,265,0.0,0.0,14,0.00,,,0.00,Wunderground v.1.15,2013-05-03 11:14:00,
2013-05-03 04:20:00,44.4,-1.9,30.09,West,259,0.0,0.0,14,0.00,,,0.00,Wunderground v.1.15,2013-05-03 11:20:00,
2013-05-03 04:26:00,44.1,-2.2,30.08,West,261,0.0,0.0,14,0.00,,,0.00,Wunderground v.1.15,2013-05-03 11:26:00,
2013-05-03 04:32:00,44.8,-1.6,30.08,West,265,0.0,0.0,14,0.00,,,0.00,Wunderground v.1.15,2013-05-03 11:32:00,
2013-05-03 04:38:00,45.5,-2.6,30.08,West,261,0.0,0.0,13,0.00,,,0.00,Wunderground v.1.15,2013-05-03 11:38:00,
2013-05-03 04:44:00,46.0,-2.2,30.08,West,262,0.0,0.0,13,0.00,,,0.00,Wunderground v.1.15,2013-05-03 11:44:00,
2013-05-03 04:50:00,46.3,-3.6,30.08,WSW,258,0.0,0.0,12,0.00,,,0.00,Wunderground v.1.15,2013-05-03 11:50:00,
2013-05-03 04:56:00,46.5,-3.5,30.08,WSW,252,0.0,0.0,12,0.00,,,0.00,Wunderground v.1.15,2013-05-03 11:56:00,
2013-05-03 05:02:00,46.4,-3.6,30.08,WSW,252,0.0,0.0,12,0.00,,,0.00,Wunderground v.1.15,2013-05-03 12:02:00,
2013-05-03 05:07:00,46.7,-3.3,30.08,WSW,258,0.0,0.0,12,0.00,,,0.00,Wunderground v.1.15,2013-05-03 12:07:00,
2013-05-03 05:13:00,46.7,-3.3,30.07,West,260,0.0,0.0,12,0.00,,,0.00,Wunderground v.1.15,2013-05-03 12:13:00,
2013-05-03 05:19:00,47.1,-3.0,30.07,West,261,0.0,0.0,12,0.00,,,0.00,Wunderground v.1.15,2013-05-03 12:19:00,
2013-05-03 05:24:00,46.4,-3.6,30.08,West,281,0.0,0.0,12,0.00,,,0.00,Wunderground v.1.15,2013-05-03 12:24:00,
2013-05-03 05:30:00,45.3,-2.8,30.08,West,259,0.0,0.0,13,0.00,,,0.00,Wunderground v.1.15,2013-05-03 12:30:00,
2013-05-03 05:36:00,44.7,-3.2,30.07,WSW,252,0.0,0.0,13,0.00,,,0.00,Wunderground v.1.15,2013-05-03 12:36:00,
2013-05-03 05:41:00,44.7,-1.7,30.07,West,262,0.0,0.0,14,0.00,,,0.00,Wunderground v.1.15,2013-05-03 12:41:00,
2013-05-03 05:47:00,45.1,-1.4,30.07,WSW,252,0.0,0.0,14,0.00,,,0.00,Wunderground v.1.15,2013-05-03 12:47:00,
2013-05-03 05:53:00,45.1,-1.4,30.07,WSW,247,0.0,0.0,14,0.00,,,0.00,Wunderground v.1.15,2013-05-03 12:53:00,
2013-05-03 05:59:00,45.9,-0.7,30.07,WSW,250,0.0,0.0,14,0.00,,,0.00,Wunderground v.1.15,2013-05-03 12:59:00,
2013-05-03 06:05:00,45.8,-0.8,30.07,SW,233,0.0,0.0,14,0.00,,,0.00,Wunderground v.1.15,2013-05-03 13:05:00,
2013-05-03 06:10:00,46.1,-0.6,30.07,West,265,0.0,0.0,14,0.00,,,0.00,Wunderground v.1.15,2013-05-03 13:10:00,
2013-05-03 06:16:00,46.5,-1.8,30.07,West,259,0.0,0.0,13,0.00,,,0.00,Wunderground v.1.15,2013-05-03 13:16:00,
2013-05-03 06:22:00,46.5,1.2,30.07,WSW,238,0.0,0.0,15,0.00,,,0.00,Wunderground v.1.15,2013-05-03 13:22:00,
2013-05-03 06:28:00,47.1,5.7,30.07,SSW,211,1.0,4.0,18,0.00,,,0.00,Wunderground v.1.15,2013-05-03 13:28:00,
2013-05-03 06:34:00,47.6,4.9,30.07,WSW,238,1.0,1.0,17,0.00,,,0.00,Wunderground v.1.15,2013-05-03 13:34:00,
2013-05-03 06:40:00,46.6,10.7,30.07,SW,230,0.0,0.0,23,0.00,,,0.00,Wunderground v.1.15,2013-05-03 13:40:00,
2013-05-03 06:46:00,46.4,11.5,30.07,WSW,247,0.0,0.0,24,0.00,,,0.00,Wunderground v.1.15,2013-05-03 13:46:00,
2013-05-03 06:52:00,46.6,14.4,30.07,SW,234,0.0,0.0,27,0.00,,,0.00,Wunderground v.1.15,2013-05-03 13:52:00,
2013-05-03 06:58:00,47.3,11.3,30.06,SSW,210,0.0,0.0,23,0.00,,,0.00,Wunderground v.1.15,2013-05-03 13:58:00,
2013-05-03 07:04:00,48.4,8.0,30.06,WSW,255,0.0,0.0,19,0.00,,,0.00,Wunderground v.1.15,2013-05-03 14:04:00,
2013-05-03 07:10:00,49.0,4.7,30.07,West,265,0.0,0.0,16,0.00,,,0.00,Wunderground v.1.15,2013-05-03 14:10:00,
2013-05-03 07:16:00,49.6,5.2,30.07,West,259,0.0,0.0,16,0.00,,,0.00,Wunderground v.1.15,2013-05-03 14:16:00,
2013-05-03 07:22:00,50.4,2.9,30.07,West,278,0.0,0.0,14,0.00,,,0.00,Wunderground v.1.15,2013-05-03 14:22:00,
2013-05-03 07:28:00,51.3,2.0,30.07,West,266,0.0,0.0,13,0.00,,,0.00,Wunderground v.1.15,2013-05-03 14:28:00,
2013-05-03 07:34:00,52.0,2.6,30.07,West,260,1.0,3.0,13,0.00,,,0.00,Wunderground v.1.15,2013-05-03 14:34:00,
2013-05-03 07:40:00,52.9,1.6,30.07,WSW,258,3.0,3.0,12,0.00,,,0.00,Wunderground v.1.15,2013-05-03 14:40:00,
2013-05-03 07:46:00,53.9,2.4,30.07,West,264,2.0,3.0,12,0.00,,,0.00,Wunderground v.1.15,2013-05-03 14:46:00,
2013-05-03 07:52:00,54.7,3.0,30.07,West,260,0.0,1.0,12,0.00,,,0.00,Wunderground v.1.15,2013-05-03 14:52:00,
2013-05-03 07:58:00,55.5,1.7,30.07,WSW,245,0.0,1.0,11,0.00,,,0.00,Wunderground v.1.15,2013-05-03 14:58:00,
2013-05-03 08:04:00,56.2,2.3,30.06,WSW,255,0.0,0.0,11,0.00,,,0.00,Wunderground v.1.15,2013-05-03 15:04:00,
2013-05-03 08:10:00,57.1,0.9,30.06,West,266,0.0,0.0,10,0.00,,,0.00,Wunderground v.1.15,2013-05-03 15:10:00,
2013-05-03 08:16:00,58.0,1.6,30.06,West,263,0.0,0.0,10,0.00,,,0.00,Wunderground v.1.15,2013-05-03 15:16:00,
2013-05-03 08:22:00,58.9,2.3,30.06,West,278,0.0,0.0,10,0.00,,,0.00,Wunderground v.1.15,2013-05-03 15:22:00,
2013-05-03 08:28:00,59.6,2.9,30.06,WSW,257,0.0,0.0,10,0.00,,,0.00,Wunderground v.1.15,2013-05-03 15:28:00,
2013-05-03 08:34:00,60.6,1.3,30.06,WSW,257,0.0,0.0,9,0.00,,,0.00,Wunderground v.1.15,2013-05-03 15:34:00,
2013-05-03 08:40:00,61.0,1.7,30.05,NW,309,0.0,0.0,9,0.00,,,0.00,Wunderground v.1.15,2013-05-03 15:40:00,
2013-05-03 08:46:00,61.4,2.0,30.05,NW,308,0.0,0.0,9,0.00,,,0.00,Wunderground v.1.15,2013-05-03 15:46:00,
2013-05-03 08:51:00,62.2,0.0,30.05,WNW,290,0.0,0.0,8,0.00,,,0.00,Wunderground v.1.15,2013-05-03 15:51:00,
2013-05-03 08:57:00,62.4,0.2,30.05,NNW,330,0.0,0.0,8,0.00,,,0.00,Wunderground v.1.15,2013-05-03 15:57:00,
2013-05-03 09:03:00,62.2,-2.8,30.05,NW,307,0.0,0.0,7,0.00,,,0.00,Wunderground v.1.15,2013-05-03 16:03:00,
2013-05-03 09:09:00,62.7,-2.4,30.05,WSW,254,0.0,0.0,7,0.00,,,0.00,Wunderground v.1.15,2013-05-03 16:09:00,
2013-05-03 09:15:00,63.5,-1.8,30.04,WNW,292,0.0,0.0,7,0.00,,,0.00,Wunderground v.1.15,2013-05-03 16:15:00,
2013-05-03 09:21:00,64.2,-4.6,30.04,NNW,339,0.0,0.0,6,0.00,,,0.00,Wunderground v.1.15,2013-05-03 16:21:00,
2013-05-03 09:27:00,65.0,-4.0,30.04,WNW,295,0.0,0.0,6,0.00,,,0.00,Wunderground v.1.15,2013-05-03 16:27:00,
2013-05-03 09:33:00,65.0,-4.0,30.04,NNE,27,0.0,0.0,6,0.00,,,0.00,Wunderground v.1.15,2013-05-03 16:33:00,
2013-05-03 09:39:00,65.3,-3.7,30.03,NW,316,0.0,0.0,6,0.00,,,0.00,Wunderground v.1.15,2013-05-03 16:39:00,
2013-05-03 09:45:00,65.9,-7.1,30.03,WNW,291,0.0,0.0,5,0.00,,,0.00,Wunderground v.1.15,2013-05-03 16:45:00,
2013-05-03 09:51:00,66.8,-2.7,30.03,West,268,0.0,0.0,6,0.00,,,0.00,Wunderground v.1.15,2013-05-03 16:51:00,
2013-05-03 09:57:00,67.0,-6.3,30.03,WNW,292,0.0,0.0,5,0.00,,,0.00,Wunderground v.1.15,2013-05-03 16:57:00,
2013-05-03 10:03:00,67.2,-2.4,30.02,WNW,290,0.0,0.0,6,0.00,,,0.00,Wunderground v.1.15,2013-05-03 17:03:00,
2013-05-03 10:08:00,67.8,-1.9,30.02,NNW,347,0.0,0.0,6,0.00,,,0.00,Wunderground v.1.15,2013-05-03 17:08:00,
2013-05-03 10:14:00,67.7,-5.8,30.02,NNE,28,0.0,0.0,5,0.00,,,0.00,Wunderground v.1.15,2013-05-03 17:14:00,
2013-05-03 10:20:00,68.1,-5.5,30.02,NW,307,0.0,0.0,5,0.00,,,0.00,Wunderground v.1.15,2013-05-03 17:20:00,
2013-05-03 10:26:00,68.1,-5.5,30.02,West,267,0.0,0.0,5,0.00,,,0.00,Wunderground v.1.15,2013-05-03 17:26:00,
2013-05-03 10:32:00,69.4,-9.2,30.02,NNE,24,0.0,0.0,4,0.00,,,0.00,Wunderground v.1.15,2013-05-03 17:32:00,
2013-05-03 10:38:00,69.3,-9.3,30.01,WNW,287,0.0,0.0,4,0.00,,,0.00,Wunderground v.1.15,2013-05-03 17:38:00,
2013-05-03 10:44:00,70.4,-8.5,30.01,NNE,31,0.0,0.0,4,0.00,,,0.00,Wunderground v.1.15,2013-05-03 17:44:00,
2013-05-03 10:50:00,69.6,-9.1,30.01,ENE,65,0.0,0.0,4,0.00,,,0.00,Wunderground v.1.15,2013-05-03 17:50:00,
2013-05-03 10:56:00,70.2,-8.6,30.01,ENE,69,0.0,0.0,4,0.00,,,0.00,Wunderground v.1.15,2013-05-03 17:56:00,
2013-05-03 11:02:00,70.4,-8.5,30.01,NNE,17,0.0,0.0,4,0.00,,,0.00,Wunderground v.1.15,2013-05-03 18:02:00,
2013-05-03 11:08:00,70.4,-8.5,30.01,NNW,334,0.0,0.0,4,0.00,,,0.00,Wunderground v.1.15,2013-05-03 18:08:00,
2013-05-03 11:14:00,71.4,-7.8,30.00,SW,217,0.0,0.0,4,0.00,,,0.00,Wunderground v.1.15,2013-05-03 18:14:00,
2013-05-03 11:20:00,72.0,-13.2,30.00,NW,312,0.0,0.0,3,0.00,,,0.00,Wunderground v.1.15,2013-05-03 18:20:00,
2013-05-03 11:26:00,71.7,-13.4,30.00,WNW,297,0.0,0.0,3,0.00,,,0.00,Wunderground v.1.15,2013-05-03 18:26:00,
2013-05-03 11:32:00,72.0,-13.2,29.99,SSW,204,0.0,0.0,3,0.00,,,0.00,Wunderground v.1.15,2013-05-03 18:32:00,
2013-05-03 11:38:00,72.7,-12.8,29.99,NNW,341,0.0,0.0,3,0.00,,,0.00,Wunderground v.1.15,2013-05-03 18:38:00,
2013-05-03 11:44:00,72.5,-12.9,29.99,NNW,338,0.0,0.0,3,0.00,,,0.00,Wunderground v.1.15,2013-05-03 18:44:00,
2013-05-03 11:50:00,72.7,-12.8,29.98,NW,306,0.0,0.0,3,0.00,,,0.00,Wunderground v.1.15,2013-05-03 18:50:00,
2013-05-03 11:56:00,73.4,-12.3,29.98,NE,34,0.0,0.0,3,0.00,,,0.00,Wunderground v.1.15,2013-05-03 18:56:00,
2013-05-03 12:02:00,73.4,-12.3,29.98,North,6,0.0,0.0,3,0.00,,,0.00,Wunderground v.1.15,2013-05-03 19:02:00,
2013-05-03 12:08:00,73.4,-12.3,29.97,North,352,0.0,0.0,3,0.00,,,0.00,Wunderground v.1.15,2013-05-03 19:08:00,
2013-05-03 12:14:00,73.4,-6.4,29.97,NE,56,0.0,0.0,4,0.00,,,0.00,Wunderground v.1.15,2013-05-03 19:14:00,
2013-05-03 12:19:00,73.3,-6.5,29.97,North,359,0.0,0.0,4,0.00,,,0.00,Wunderground v.1.15,2013-05-03 19:19:00,
2013-05-03 12:25:00,73.5,-6.4,29.96,NW,311,0.0,0.0,4,0.00,,,0.00,Wunderground v.1.15,2013-05-03 19:25:00,
2013-05-03 12:31:00,74.1,-5.9,29.96,North,357,0.0,0.0,4,0.00,,,0.00,Wunderground v.1.15,2013-05-03 19:31:00,
2013-05-03 12:37:00,74.9,-5.4,29.95,NE,42,0.0,0.0,4,0.00,,,0.00,Wunderground v.1.15,2013-05-03 19:37:00,
2013-05-03 12:43:00,75.1,-5.2,29.95,WSW,252,0.0,0.0,4,0.00,,,0.00,Wunderground v.1.15,2013-05-03 19:43:00,
2013-05-03 12:49:00,75.6,-4.9,29.95,NE,41,0.0,0.0,4,0.00,,,0.00,Wunderground v.1.15,2013-05-03 19:49:00,
2013-05-03 12:55:00,75.2,-5.2,29.94,North,8,0.0,0.0,4,0.00,,,0.00,Wunderground v.1.15,2013-05-03 19:55:00,
2013-05-03 13:00:00,75.2,-5.2,29.94,NNE,24,0.0,0.0,4,0.00,,,0.00,Wunderground v.1.15,2013-05-03 20:00:00,
2013-05-03 13:06:00,74.7,-0.8,29.94,NE,49,0.0,0.0,5,0.00,,,0.00,Wunderground v.1.15,2013-05-03 20:06:00,
2013-05-03 13:11:00,74.9,-0.7,29.93,NNE,27,0.0,0.0,5,0.00,,,0.00,Wunderground v.1.15,2013-05-03 20:11:00,
2013-05-03 13:17:00,75.6,-4.9,29.93,North,352,0.0,0.0,4,0.00,,,0.00,Wunderground v.1.15,2013-05-03 20:17:00,
2013-05-03 13:23:00,75.6,-4.9,29.92,NNW,329,0.0,0.0,4,0.00,,,0.00,Wunderground v.1.15,2013-05-03 20:23:00,
2013-05-03 13:29:00,75.9,-4.7,29.92,WNW,282,0.0,0.0,4,0.00,,,0.00,Wunderground v.1.15,2013-05-03 20:29:00,
2013-05-03 13:35:00,75.8,-4.8,29.92,NE,55,0.0,0.0,4,0.00,,,0.00,Wunderground v.1.15,2013-05-03 20:35:00,
2013-05-03 13:41:00,76.2,0.2,29.91,NNW,340,0.0,0.0,5,0.00,,,0.00,Wunderground v.1.15,2013-05-03 20:41:00,
2013-05-03 13:47:00,77.0,0.8,29.91,WSW,256,0.0,0.0,5,0.00,,,0.00,Wunderground v.1.15,2013-05-03 20:47:00,
2013-05-03 13:53:00,77.0,0.8,29.91,WSW,250,0.0,0.0,5,0.00,,,0.00,Wunderground v.1.15,2013-05-03 20:53:00,
2013-05-03 13:59:00,77.8,-3.4,29.91,NW,319,0.0,0.0,4,0.00,,,0.00,Wunderground v.1.15,2013-05-03 20:59:00,
2013-05-03 14:05:00,78.3,1.7,29.90,NNE,18,0.0,0.0,5,0.00,,,0.00,Wunderground v.1.15,2013-05-03 21:05:00,
2013-05-03 14:11:00,78.1,1.6,29.90,NNE,20,0.0,0.0,5,0.00,,,0.00,Wunderground v.1.15,2013-05-03 21:11:00,
2013-05-03 14:17:00,77.5,1.2,29.89,WNW,285,0.0,0.0,5,0.00,,,0.00,Wunderground v.1.15,2013-05-03 21:17:00,
2013-05-03 14:22:00,78.4,1.8,29.89,SSE,157,0.0,0.0,5,0.00,,,0.00,Wunderground v.1.15,2013-05-03 21:22:00,
2013-05-03 14:28:00,79.2,-2.4,29.88,NE,48,0.0,0.0,4,0.00,,,0.00,Wunderground v.1.15,2013-05-03 21:28:00,
2013-05-03 14:34:00,78.1,1.6,29.88,WNW,293,0.0,0.0,5,0.00,,,0.00,Wunderground v.1.15,2013-05-03 21:34:00,
2013-05-03 14:40:00,78.5,1.9,29.88,NNW,337,0.0,0.0,5,0.00,,,0.00,Wunderground v.1.15,2013-05-03 21:40:00,
2013-05-03 14:46:00,79.2,-2.4,29.88,NNW,335,0.0,0.0,4,0.00,,,0.00,Wunderground v.1.15,2013-05-03 21:46:00,
2013-05-03 14:52:00,78.3,-3.0,29.87,NNE,20,0.0,0.0,4,0.00,,,0.00,Wunderground v.1.15,2013-05-03 21:52:00,
2013-05-03 14:58:00,78.8,-2.7,29.87,North,359,0.0,0.0,4,0.00,,,0.00,Wunderground v.1.15,2013-05-03 21:58:00,
2013-05-03 15:04:00,78.4,1.8,29.87,West,262,0.0,0.0,5,0.00,,,0.00,Wunderground v.1.15,2013-05-03 22:04:00,
2013-05-03 15:10:00,78.6,-2.8,29.87,NNW,332,0.0,0.0,4,0.00,,,0.00,Wunderground v.1.15,2013-05-03 22:10:00,
2013-05-03 15:16:00,78.7,-2.8,29.86,South,170,0.0,0.0,4,0.00,,,0.00,Wunderground v.1.15,2013-05-03 22:16:00,
2013-05-03 15:22:00,78.9,-2.6,29.86,SW,216,0.0,0.0,4,0.00,,,0.00,Wunderground v.1.15,2013-05-03 22:22:00,
2013-05-03 15:28:00,79.4,-2.3,29.85,NW,322,0.0,0.0,4,0.00,,,0.00,Wunderground v.1.15,2013-05-03 22:28:00,
2013-05-03 15:34:00,78.9,-2.6,29.85,WSW,255,0.0,0.0,4,0.00,,,0.00,Wunderground v.1.15,2013-05-03 22:34:00,
2013-05-03 15:40:00,79.4,-2.3,29.84,NNE,18,0.0,0.0,4,0.00,,,0.00,Wunderground v.1.15,2013-05-03 22:40:00,
2013-05-03 15:46:00,79.0,2.2,29.84,WSW,257,0.0,0.0,5,0.00,,,0.00,Wunderground v.1.15,2013-05-03 22:46:00,
2013-05-03 15:52:00,78.9,-2.6,29.84,NNE,15,0.0,0.0,4,0.00,,,0.00,Wunderground v.1.15,2013-05-03 22:52:00,
2013-05-03 15:58:00,78.6,1.9,29.83,NNW,342,0.0,0.0,5,0.00,,,0.00,Wunderground v.1.15,2013-05-03 22:58:00,
2013-05-03 16:04:00,79.7,2.7,29.83,NNW,330,0.0,0.0,5,0.00,,,0.00,Wunderground v.1.15,2013-05-03 23:04:00,
2013-05-03 16:10:00,80.1,3.0,29.83,West,276,0.0,0.0,5,0.00,,,0.00,Wunderground v.1.15,2013-05-03 23:10:00,
2013-05-03 16:16:00,79.6,2.6,29.83,NNW,328,0.0,0.0,5,0.00,,,0.00,Wunderground v.1.15,2013-05-03 23:16:00,
2013-05-03 16:22:00,80.1,3.0,29.83,NNW,343,0.0,0.0,5,0.00,,,0.00,Wunderground v.1.15,2013-05-03 23:22:00,
2013-05-03 16:28:00,80.1,3.0,29.83,North,6,0.0,0.0,5,0.00,,,0.00,Wunderground v.1.15,2013-05-03 23:28:00,
2013-05-03 16:33:00,79.6,2.6,29.82,WNW,285,0.0,0.0,5,0.00,,,0.00,Wunderground v.1.15,2013-05-03 23:33:00,
2013-05-03 16:39:00,79.3,2.4,29.82,NNW,337,0.0,0.0,5,0.00,,,0.00,Wunderground v.1.15,2013-05-03 23:39:00,
2013-05-03 16:45:00,79.6,2.6,29.82,North,359,0.0,0.0,5,0.00,,,0.00,Wunderground v.1.15,2013-05-03 23:45:00,
2013-05-03 16:51:00,79.6,2.6,29.82,North,352,0.0,0.0,5,0.00,,,0.00,Wunderground v.1.15,2013-05-03 23:51:00,
2013-05-03 16:57:00,79.5,2.6,29.82,NW,323,0.0,0.0,5,0.00,,,0.00,Wunderground v.1.15,2013-05-03 23:57:00,
2013-05-03 17:03:00,79.2,6.3,29.82,NW,311,0.0,0.0,6,0.00,,,0.00,Wunderground v.1.15,2013-05-04 00:03:00,
2013-05-03 17:09:00,79.2,2.4,29.82,North,8,0.0,0.0,5,0.00,,,0.00,Wunderground v.1.15,2013-05-04 00:09:00,
2013-05-03 17:15:00,79.1,2.3,29.82,North,354,0.0,0.0,5,0.00,,,0.00,Wunderground v.1.15,2013-05-04 00:15:00,
2013-05-03 17:21:00,79.3,2.4,29.81,NW,316,0.0,0.0,5,0.00,,,0.00,Wunderground v.1.15,2013-05-04 00:21:00,
2013-05-03 17:27:00,79.2,2.4,29.81,NW,323,0.0,0.0,5,0.00,,,0.00,Wunderground v.1.15,2013-05-04 00:27:00,
2013-05-03 17:33:00,79.1,2.3,29.81,WNW,293,0.0,0.0,5,0.00,,,0.00,Wunderground v.1.15,2013-05-04 00:33:00,
2013-05-03 17:39:00,78.9,2.1,29.81,NW,315,0.0,0.0,5,0.00,,,0.00,Wunderground v.1.15,2013-05-04 00:39:00,
2013-05-03 17:45:00,78.5,1.9,29.81,NNW,343,0.0,0.0,5,0.00,,,0.00,Wunderground v.1.15,2013-05-04 00:45:00,
2013-05-03 17:51:00,78.2,1.6,29.81,North,359,0.0,0.0,5,0.00,,,0.00,Wunderground v.1.15,2013-05-04 00:51:00,
2013-05-03 17:57:00,78.0,1.5,29.80,North,4,0.0,0.0,5,0.00,,,0.00,Wunderground v.1.15,2013-05-04 00:57:00,
2013-05-03 18:03:00,77.7,1.3,29.80,North,354,0.0,0.0,5,0.00,,,0.00,Wunderground v.1.15,2013-05-04 01:03:00,
2013-05-03 18:09:00,77.4,1.1,29.80,NNE,24,0.0,0.0,5,0.00,,,0.00,Wunderground v.1.15,2013-05-04 01:09:00,
2013-05-03 18:15:00,77.2,0.9,29.80,North,359,0.0,0.0,5,0.00,,,0.00,Wunderground v.1.15,2013-05-04 01:15:00,
2013-05-03 18:21:00,77.0,0.8,29.80,NE,44,0.0,0.0,5,0.00,,,0.00,Wunderground v.1.15,2013-05-04 01:21:00,
2013-05-03 18:27:00,76.8,-4.1,29.80,North,1,0.0,0.0,4,0.00,,,0.00,Wunderground v.1.15,2013-05-04 01:27:00,
2013-05-03 18:33:00,76.6,0.5,29.80,North,7,0.0,0.0,5,0.00,,,0.00,Wunderground v.1.15,2013-05-04 01:33:00,
2013-05-03 18:38:00,76.2,0.2,29.80,NNE,20,0.0,0.0,5,0.00,,,0.00,Wunderground v.1.15,2013-05-04 01:38:00,
2013-05-03 18:44:00,75.8,-0.1,29.80,NNE,27,0.0,0.0,5,0.00,,,0.00,Wunderground v.1.15,2013-05-04 01:44:00,
2013-05-03 18:49:00,75.5,-0.3,29.80,North,7,0.0,0.0,5,0.00,,,0.00,Wunderground v.1.15,2013-05-04 01:49:00,
2013-05-03 18:55:00,75.3,-0.4,29.80,NNW,339,0.0,0.0,5,0.00,,,0.00,Wunderground v.1.15,2013-05-04 01:55:00,
2013-05-03 19:00:00,75.3,-0.4,29.79,NNW,339,0.0,0.0,5,0.00,,,0.00,Wunderground v.1.15,2013-05-04 02:00:00,
2013-05-03 19:05:00,75.2,-0.5,29.79,NNE,14,0.0,0.0,5,0.00,,,0.00,Wunderground v.1.15,2013-05-04 02:05:00,
2013-05-03 19:11:00,75.0,-0.6,29.80,NNW,347,0.0,0.0,5,0.00,,,0.00,Wunderground v.1.15,2013-05-04 02:11:00,
2013-05-03 19:16:00,74.6,-0.9,29.79,North,352,0.0,0.0,5,0.00,,,0.00,Wunderground v.1.15,2013-05-04 02:16:00,
2013-05-03 19:22:00,74.2,-1.2,29.79,North,7,0.0,0.0,5,0.00,,,0.00,Wunderground v.1.15,2013-05-04 02:22:00,
2013-05-03 19:28:00,74.0,-1.3,29.79,North,6,0.0,0.0,5,0.00,,,0.00,Wunderground v.1.15,2013-05-04 02:28:00,
2013-05-03 19:33:00,73.5,2.2,29.80,North,353,0.0,0.0,6,0.00,,,0.00,Wunderground v.1.15,2013-05-04 02:33:00,
2013-05-03 19:39:00,72.9,1.8,29.79,NNE,22,0.0,0.0,6,0.00,,,0.00,Wunderground v.1.15,2013-05-04 02:39:00,
2013-05-03 19:45:00,72.3,1.3,29.80,NNW,345,0.0,0.0,6,0.00,,,0.00,Wunderground v.1.15,2013-05-04 02:45:00,
2013-05-03 19:51:00,71.6,0.8,29.80,North,360,0.0,0.0,6,0.00,,,0.00,Wunderground v.1.15,2013-05-04 02:51:00,
2013-05-03 19:56:00,71.1,3.8,29.80,North,6,0.0,0.0,7,0.00,,,0.00,Wunderground v.1.15,2013-05-04 02:56:00,
2013-05-03 20:02:00,70.5,3.3,29.80,North,4,0.0,0.0,7,0.00,,,0.00,Wunderground v.1.15,2013-05-04 03:02:00,
2013-05-03 20:08:00,69.8,2.8,29.80,NNW,343,0.0,0.0,7,0.00,,,0.00,Wunderground v.1.15,2013-05-04 03:08:00,
2013-05-03 20:14:00,69.2,5.3,29.80,NNW,336,0.0,0.0,8,0.00,,,0.00,Wunderground v.1.15,2013-05-04 03:14:00,
2013-05-03 20:20:00,68.6,4.8,29.80,NNW,336,0.0,0.0,8,0.00,,,0.00,Wunderground v.1.15,2013-05-04 03:20:00,
2013-05-03 20:26:00,68.0,4.4,29.80,NNW,346,0.0,0.0,8,0.00,,,0.00,Wunderground v.1.15,2013-05-04 03:26:00,
2013-05-03 20:32:00,67.3,3.9,29.80,NW,321,0.0,0.0,8,0.00,,,0.00,Wunderground v.1.15,2013-05-04 03:32:00,
2013-05-03 20:38:00,66.8,6.1,29.81,NNW,330,0.0,0.0,9,0.00,,,0.00,Wunderground v.1.15,2013-05-04 03:38:00,
2013-05-03 20:44:00,66.5,5.8,29.81,NNW,340,0.0,0.0,9,0.00,,,0.00,Wunderground v.1.15,2013-05-04 03:44:00,
2013-05-03 20:50:00,66.1,5.5,29.81,NW,321,0.0,0.0,9,0.00,,,0.00,Wunderground v.1.15,2013-05-04 03:50:00,
2013-05-03 20:56:00,65.8,5.3,29.81,NNW,342,0.0,0.0,9,0.00,,,0.00,Wunderground v.1.15,2013-05-04 03:56:00,
2013-05-03 21:01:00,65.6,5.2,29.82,NNW,342,0.0,0.0,9,0.00,,,0.00,Wunderground v.1.15,2013-05-04 04:01:00,
2013-05-03 21:02:00,65.5,5.1,29.81,North,354,0.0,0.0,9,0.00,,,0.00,Wunderground v.1.15,2013-05-04 04:02:00,
2013-05-03 21:03:00,65.3,4.9,29.82,NNW,343,0.0,0.0,9,0.00,,,0.00,Wunderground v.1.15,2013-05-04 04:03:00,
2013-05-03 21:04:00,65.2,4.9,29.82,NNW,347,0.0,0.0,9,0.00,,,0.00,Wunderground v.1.15,2013-05-04 04:04:00,
2013-05-03 21:09:00,64.4,6.6,29.82,NNW,345,0.0,0.0,10,0.00,,,0.00,Wunderground v.1.15,2013-05-04 04:09:00,
2013-05-03 21:11:00,64.2,6.4,29.82,NNW,336,0.0,0.0,10,0.00,,,0.00,Wunderground v.1.15,2013-05-04 04:11:00,
2013-05-03 21:17:00,63.8,6.1,29.82,NNW,336,0.0,0.0,10,0.00,,,0.00,Wunderground v.1.15,2013-05-04 04:17:00,
2013-05-03 21:23:00,63.5,5.9,29.82,NW,326,0.0,0.0,10,0.00,,,0.00,Wunderground v.1.15,2013-05-04 04:23:00,
2013-05-03 21:29:00,63.5,5.9,29.83,NNW,331,0.0,0.0,10,0.00,,,0.00,Wunderground v.1.15,2013-05-04 04:29:00,
2013-05-03 21:34:00,63.5,5.9,29.83,NW,314,0.0,0.0,10,0.00,,,0.00,Wunderground v.1.15,2013-05-04 04:34:00,
2013-05-03 21:40:00,63.4,5.8,29.83,NW,325,0.0,0.0,10,0.00,,,0.00,Wunderground v.1.15,2013-05-04 04:40:00,
2013-05-03 21:46:00,63.3,5.7,29.82,NNW,338,0.0,7.0,10,0.00,,,0.00,Wunderground v.1.15,2013-05-04 04:46:00,
2013-05-03 21:52:00,63.0,5.5,29.83,NW,326,0.0,0.0,10,0.00,,,0.00,Wunderground v.1.15,2013-05-04 04:52:00,
2013-05-03 21:58:00,62.5,7.2,29.83,NNW,330,0.0,0.0,11,0.00,,,0.00,Wunderground v.1.15,2013-05-04 04:58:00,
2013-05-03 22:04:00,62.2,7.0,29.83,NNW,336,0.0,0.0,11,0.00,,,0.00,Wunderground v.1.15,2013-05-04 05:04:00,
2013-05-03 22:10:00,62.2,8.9,29.83,NW,326,0.0,0.0,12,0.00,,,0.00,Wunderground v.1.15,2013-05-04 05:10:00,
2013-05-03 22:16:00,62.0,8.7,29.83,NW,326,0.0,0.0,12,0.00,,,0.00,Wunderground v.1.15,2013-05-04 05:16:00,
2013-05-03 22:22:00,62.0,8.7,29.83,NNW,342,0.0,0.0,12,0.00,,,0.00,Wunderground v.1.15,2013-05-04 05:22:00,
2013-05-03 22:28:00,62.1,10.6,29.83,NNW,335,0.0,0.0,13,0.00,,,0.00,Wunderground v.1.15,2013-05-04 05:28:00,
2013-05-03 22:34:00,62.3,10.8,29.83,NNW,336,0.0,0.0,13,0.00,,,0.00,Wunderground v.1.15,2013-05-04 05:34:00,
2013-05-03 22:40:00,62.0,8.7,29.83,West,264,0.0,0.0,12,0.00,,,0.00,Wunderground v.1.15,2013-05-04 05:40:00,
2013-05-03 22:46:00,60.2,9.1,29.83,West,261,0.0,0.0,13,0.00,,,0.00,Wunderground v.1.15,2013-05-04 05:46:00,
2013-05-03 22:52:00,59.2,8.3,29.83,West,261,0.0,0.0,13,0.00,,,0.00,Wunderground v.1.15,2013-05-04 05:52:00,
2013-05-03 22:58:00,59.7,10.3,29.83,WNW,290,0.0,0.0,14,0.00,,,0.00,Wunderground v.1.15,2013-05-04 05:58:00,
2013-05-03 23:04:00,60.4,9.2,29.83,NW,305,0.0,0.0,13,0.00,,,0.00,Wunderground v.1.15,2013-05-04 06:04:00,
2013-05-03 23:10:00,60.7,11.1,29.83,NW,315,0.0,0.0,14,0.00,,,0.00,Wunderground v.1.15,2013-05-04 06:10:00,
2013-05-03 23:16:00,60.7,11.1,29.83,NNW,329,0.0,0.0,14,0.00,,,0.00,Wunderground v.1.15,2013-05-04 06:16:00,
2013-05-03 23:22:00,60.7,11.1,29.83,NNW,330,0.0,0.0,14,0.00,,,0.00,Wunderground v.1.15,2013-05-04 06:22:00,
2013-05-03 23:28:00,60.8,11.2,29.83,NNW,331,0.0,0.0,14,0.00,,,0.00,Wunderground v.1.15,2013-05-04 06:28:00,
2013-05-03 23:34:00,60.6,11.1,29.83,NNW,330,0.0,0.0,14,0.00,,,0.00,Wunderground v.1.15,2013-05-04 06:34:00,
2013-05-03 23:40:00,60.5,11.0,29.83,NNW,335,0.0,0.0,14,0.00,,,0.00,Wunderground v.1.15,2013-05-04 06:40:00,
2013-05-03 23:46:00,60.5,11.0,29.83,NW,315,0.0,0.0,14,0.00,,,0.00,Wunderground v.1.15,2013-05-04 06:46:00,
2013-05-03 23:52:00,60.8,11.2,29.83,NW,315,0.0,0.0,14,0.00,,,0.00,Wunderground v.1.15,2013-05-04 06:52:00,
2013-05-03 23:58:00,59.7,8.7,29.83,WSW,252,0.0,0.0,13,0.00,,,0.00,Wunderground v.1.15,2013-05-04 06:58:00,